KELK/ELK METAR and TAF weather

Enter ICAO airport designator
Station Type Date Time Source
KELK METAR 2019/06/17 06:55 UTC NOAA

KELK 170655Z AUTO 30004KT 10SM CLR 17/15 A2993 RMK AO2 T01710154


Station Type Date Time Source
KELK Decoded METAR 2019/06/17 06:55 UTC NOAA

Station name not available
Jun 17, 2019 - 02:55 AM EDT / 2019.06.17 0655 UTC
Wind: from the WNW (300 degrees) at 5 MPH (4 KT):0
Visibility: 10 mile(s):0
Sky conditions: clear
Temperature: 62.8 F (17.1 C)
Dew Point: 59.7 F (15.4 C)
Relative Humidity: 89%
Pressure (altimeter): 29.93 in. Hg (1013 hPa)
ob: KELK 170655Z AUTO 30004KT 10SM CLR 17/15 A2993 RMK AO2 T01710154
cycle: 7

Station Type Date Time Source
KELK TAF UTC NOAA

Error!

Example: see airport list